createdAt,value
2018-01-02T00:00:26.800Z,982.75
2018-01-02T00:01:26.794Z,982.78
2018-01-02T00:02:26.790Z,982.73
2018-01-02T00:03:26.785Z,982.78
2018-01-02T00:04:26.778Z,982.77
2018-01-02T00:05:26.771Z,982.77
2018-01-02T00:06:26.768Z,982.77
2018-01-02T00:07:26.760Z,982.75
2018-01-02T00:08:26.756Z,982.82
2018-01-02T00:09:26.756Z,982.75
2018-01-02T00:10:26.747Z,982.83
2018-01-02T00:11:26.739Z,982.81
2018-01-02T00:12:26.737Z,982.83
2018-01-02T00:13:26.730Z,982.86
2018-01-02T00:14:26.727Z,982.90
2018-01-02T00:15:26.719Z,982.89
2018-01-02T00:16:26.713Z,982.88
2018-01-02T00:17:26.709Z,982.87
2018-01-02T00:18:26.703Z,982.87
2018-01-02T00:19:26.703Z,982.84
2018-01-02T00:20:26.691Z,982.88
2018-01-02T00:21:26.692Z,982.86
2018-01-02T00:22:26.699Z,982.85
2018-01-02T00:23:26.679Z,982.90
2018-01-02T00:24:26.670Z,982.88
2018-01-02T00:25:26.665Z,982.86
2018-01-02T00:26:26.660Z,982.89
2018-01-02T00:27:26.654Z,982.86
2018-01-02T00:28:26.650Z,982.87
2018-01-02T00:29:26.644Z,982.90
2018-01-02T00:30:26.671Z,982.89
2018-01-02T00:31:26.632Z,982.84
2018-01-02T00:32:26.631Z,982.84
2018-01-02T00:33:26.622Z,982.84
2018-01-02T00:34:26.619Z,982.86
2018-01-02T00:35:26.611Z,982.85
2018-01-02T00:36:26.611Z,982.87
2018-01-02T00:37:26.601Z,982.83
2018-01-02T00:38:26.598Z,982.85
2018-01-02T00:39:26.592Z,982.84
2018-01-02T00:40:26.592Z,982.82
2018-01-02T00:41:26.578Z,982.79
2018-01-02T00:42:26.595Z,982.75
2018-01-02T00:43:26.589Z,982.78
2018-01-02T00:44:26.565Z,982.77
2018-01-02T00:45:26.559Z,982.74
2018-01-02T00:46:26.554Z,982.73
2018-01-02T00:47:26.548Z,982.76
2018-01-02T00:48:26.542Z,982.76
2018-01-02T00:49:26.541Z,982.78
2018-01-02T00:50:26.528Z,982.78
2018-01-02T00:51:26.525Z,982.78
2018-01-02T00:52:26.518Z,982.82
2018-01-02T00:53:26.515Z,982.83
2018-01-02T00:54:26.507Z,982.86
2018-01-02T00:55:26.503Z,982.87
2018-01-02T00:56:26.524Z,982.89
2018-01-02T00:57:26.494Z,982.89
2018-01-02T00:58:26.489Z,982.89
2018-01-02T00:59:26.482Z,982.90
2018-01-02T01:00:26.473Z,982.94
2018-01-02T01:01:26.473Z,982.92
2018-01-02T01:02:26.464Z,982.93
2018-01-02T01:03:26.585Z,982.94
2018-01-02T01:04:26.452Z,982.97
2018-01-02T01:05:26.446Z,982.92
2018-01-02T01:06:26.443Z,982.95
2018-01-02T01:07:26.436Z,982.98
2018-01-02T01:08:26.431Z,982.99
2018-01-02T01:09:26.423Z,982.99
2018-01-02T01:10:26.420Z,982.98
2018-01-02T01:11:26.413Z,982.98
2018-01-02T01:12:26.411Z,983.02
2018-01-02T01:13:26.403Z,983.10
2018-01-02T01:14:26.395Z,983.14
2018-01-02T01:15:26.391Z,983.16
2018-01-02T01:16:26.386Z,983.20
2018-01-02T01:17:26.380Z,983.17
2018-01-02T01:18:26.373Z,983.16
2018-01-02T01:19:26.368Z,983.21
2018-01-02T01:20:26.362Z,983.24
2018-01-02T01:21:26.356Z,983.28
2018-01-02T01:22:26.351Z,983.24
2018-01-02T01:23:26.346Z,983.23
2018-01-02T01:24:26.340Z,983.29
2018-01-02T01:25:26.339Z,983.28
2018-01-02T01:26:26.329Z,983.30
2018-01-02T01:27:26.325Z,983.32
2018-01-02T01:28:26.320Z,983.32
2018-01-02T01:29:26.325Z,983.30
2018-01-02T01:30:26.308Z,983.29
2018-01-02T01:31:26.303Z,983.32
2018-01-02T01:32:26.300Z,983.28
2018-01-02T01:33:26.292Z,983.34
2018-01-02T01:34:26.285Z,983.33
2018-01-02T01:35:26.282Z,983.35
2018-01-02T01:36:26.324Z,983.41
2018-01-02T01:37:26.319Z,983.37
2018-01-02T01:38:26.264Z,983.43
2018-01-02T01:39:26.262Z,983.41
2018-01-02T01:40:26.254Z,983.39
2018-01-02T01:41:26.248Z,983.41
2018-01-02T01:42:26.243Z,983.42
2018-01-02T01:43:26.237Z,983.39
2018-01-02T01:44:26.232Z,983.40
2018-01-02T01:45:26.226Z,983.38
2018-01-02T01:46:26.221Z,983.44
2018-01-02T01:47:26.214Z,983.38
2018-01-02T01:48:26.211Z,983.41
2018-01-02T01:49:26.205Z,983.40
2018-01-02T01:50:26.197Z,983.38
2018-01-02T01:51:26.196Z,983.39
2018-01-02T01:52:26.186Z,983.42
2018-01-02T01:53:26.206Z,983.45
2018-01-02T01:54:26.176Z,983.46
2018-01-02T01:55:26.171Z,983.46
2018-01-02T01:56:26.166Z,983.49
2018-01-02T01:57:26.160Z,983.46
2018-01-02T01:58:26.155Z,983.44
2018-01-02T01:59:26.154Z,983.43
2018-01-02T02:00:26.144Z,983.39
2018-01-02T02:01:26.140Z,983.43
2018-01-02T02:02:26.150Z,983.45
2018-01-02T02:03:26.125Z,983.46
2018-01-02T02:04:26.122Z,983.50
2018-01-02T02:05:26.116Z,983.51
2018-01-02T02:06:26.110Z,983.48
2018-01-02T02:07:26.105Z,983.50
2018-01-02T02:08:26.098Z,983.52
2018-01-02T02:09:26.093Z,983.52
2018-01-02T02:10:26.087Z,983.49
2018-01-02T02:11:26.083Z,983.49
2018-01-02T02:12:26.077Z,983.51
2018-01-02T02:13:26.071Z,983.55
2018-01-02T02:14:26.066Z,983.52
2018-01-02T02:15:26.064Z,983.56
2018-01-02T02:16:26.055Z,983.57
2018-01-02T02:17:26.049Z,983.58
2018-01-02T02:18:26.044Z,983.62
2018-01-02T02:19:26.038Z,983.63
2018-01-02T02:20:26.033Z,983.65
2018-01-02T02:21:26.028Z,983.66
2018-01-02T02:22:26.022Z,983.68
2018-01-02T02:23:26.019Z,983.68
2018-01-02T02:24:26.015Z,983.70
2018-01-02T02:25:26.008Z,983.74
2018-01-02T02:26:26.000Z,983.79
2018-01-02T02:27:25.995Z,983.87
2018-01-02T02:28:25.991Z,983.88
2018-01-02T02:29:25.983Z,983.93
2018-01-02T02:30:25.977Z,983.87
2018-01-02T02:31:25.974Z,984.00
2018-01-02T02:32:25.969Z,984.02
2018-01-02T02:33:25.963Z,983.96
2018-01-02T02:34:25.958Z,983.92
2018-01-02T02:35:25.956Z,983.95
2018-01-02T02:36:25.953Z,983.91
2018-01-02T02:37:25.942Z,983.99
2018-01-02T02:38:25.937Z,983.97
2018-01-02T02:39:25.931Z,984.02
2018-01-02T02:40:25.925Z,983.98
2018-01-02T02:41:25.919Z,983.97
2018-01-02T02:42:25.913Z,983.99
2018-01-02T02:43:25.909Z,984.00
2018-01-02T02:44:25.906Z,984.03
2018-01-02T02:45:25.897Z,984.08
2018-01-02T02:46:25.891Z,984.07
2018-01-02T02:47:25.887Z,984.14
2018-01-02T02:48:25.881Z,984.15
2018-01-02T02:49:25.875Z,984.22
2018-01-02T02:50:25.871Z,984.27
2018-01-02T02:51:25.864Z,984.29
2018-01-02T02:52:25.862Z,984.32
2018-01-02T02:53:25.853Z,984.36
2018-01-02T02:54:25.850Z,984.36
2018-01-02T02:55:25.842Z,984.40
2018-01-02T02:56:25.839Z,984.35
2018-01-02T02:57:25.834Z,984.39
2018-01-02T02:58:25.831Z,984.44
2018-01-02T02:59:25.822Z,984.44
2018-01-02T03:00:25.818Z,984.46
2018-01-02T03:01:25.812Z,984.43
2018-01-02T03:02:25.809Z,984.44
2018-01-02T03:03:25.803Z,984.59
2018-01-02T03:04:25.797Z,984.56
2018-01-02T03:05:25.791Z,984.60
2018-01-02T03:06:25.786Z,984.58
2018-01-02T03:07:25.782Z,984.59
2018-01-02T03:08:25.774Z,984.62
2018-01-02T03:09:25.771Z,984.63
2018-01-02T03:10:25.766Z,984.64
2018-01-02T03:11:25.766Z,984.67
2018-01-02T03:12:25.756Z,984.65
2018-01-02T03:13:25.748Z,984.62
2018-01-02T03:14:25.744Z,984.71
2018-01-02T03:15:25.740Z,984.70
2018-01-02T03:16:25.737Z,984.69
2018-01-02T03:17:25.729Z,984.72
2018-01-02T03:18:25.724Z,984.65
2018-01-02T03:19:25.720Z,984.83
2018-01-02T03:20:25.714Z,984.75
2018-01-02T03:21:25.710Z,984.76
2018-01-02T03:22:25.706Z,984.85
2018-01-02T03:23:25.702Z,984.85
2018-01-02T03:24:25.695Z,984.86
2018-01-02T03:25:25.689Z,984.87
2018-01-02T03:26:25.683Z,984.94
2018-01-02T03:27:25.677Z,984.88
2018-01-02T03:28:25.673Z,984.97
2018-01-02T03:29:25.666Z,984.96
2018-01-02T03:30:25.663Z,984.98
2018-01-02T03:31:25.655Z,985.02
2018-01-02T03:32:25.655Z,984.96
2018-01-02T03:33:25.646Z,984.99
2018-01-02T03:34:25.640Z,985.04
2018-01-02T03:35:25.636Z,985.01
2018-01-02T03:36:25.630Z,984.99
2018-01-02T03:37:25.623Z,985.07
2018-01-02T03:38:25.627Z,985.05
2018-01-02T03:39:25.615Z,985.06
2018-01-02T03:40:25.609Z,985.12
2018-01-02T03:41:25.601Z,985.04
2018-01-02T03:42:25.598Z,985.10
2018-01-02T03:43:25.593Z,985.09
2018-01-02T03:44:25.588Z,985.14
2018-01-02T03:45:25.580Z,985.13
2018-01-02T03:46:25.576Z,985.23
2018-01-02T03:47:25.572Z,985.29
2018-01-02T03:48:25.565Z,985.31
2018-01-02T03:49:25.559Z,985.35
2018-01-02T03:50:25.554Z,985.37
2018-01-02T03:51:25.549Z,985.36
2018-01-02T03:52:25.542Z,985.42
2018-01-02T03:53:25.537Z,985.41
2018-01-02T03:54:25.534Z,985.40
2018-01-02T03:55:25.527Z,985.49
2018-01-02T03:56:25.522Z,985.51
2018-01-02T03:57:25.518Z,985.56
2018-01-02T03:58:25.510Z,985.52
2018-01-02T03:59:25.503Z,985.56
2018-01-02T04:00:25.500Z,985.58
2018-01-02T04:01:25.496Z,985.58
2018-01-02T04:02:25.487Z,985.65
2018-01-02T04:03:25.481Z,985.69
2018-01-02T04:04:25.479Z,985.75
2018-01-02T04:05:25.604Z,985.70
2018-01-02T04:06:25.465Z,985.77
2018-01-02T04:07:25.470Z,985.74
2018-01-02T04:08:25.459Z,985.78
2018-01-02T04:09:25.495Z,985.76
2018-01-02T04:10:25.446Z,985.87
2018-01-02T04:11:25.435Z,985.86
2018-01-02T04:12:25.434Z,985.83
2018-01-02T04:13:25.424Z,985.87
2018-01-02T04:14:25.428Z,985.89
2018-01-02T04:15:25.414Z,985.92
2018-01-02T04:16:25.414Z,985.95
2018-01-02T04:17:25.401Z,986.04
2018-01-02T04:18:40.085Z,986.01
2018-01-02T04:19:25.391Z,986.06
2018-01-02T04:20:25.387Z,986.06
2018-01-02T04:21:25.389Z,986.09
2018-01-02T04:22:25.373Z,986.14
2018-01-02T04:23:25.369Z,986.15
2018-01-02T04:24:25.361Z,986.14
2018-01-02T04:25:25.354Z,986.25
2018-01-02T04:26:25.351Z,986.22
2018-01-02T04:27:25.357Z,986.15
2018-01-02T04:28:25.337Z,986.28
2018-01-02T04:29:25.334Z,986.29
2018-01-02T04:30:25.332Z,986.34
2018-01-02T04:31:25.324Z,986.38
2018-01-02T04:32:25.326Z,986.44
2018-01-02T04:33:25.310Z,986.47
2018-01-02T04:34:25.304Z,986.49
2018-01-02T04:35:25.302Z,986.53
2018-01-02T04:36:25.310Z,986.52
2018-01-02T04:37:25.289Z,986.56
2018-01-02T04:38:25.302Z,986.64
2018-01-02T04:39:25.283Z,986.55
2018-01-02T04:40:25.271Z,986.64
2018-01-02T04:41:25.282Z,986.66
2018-01-02T04:42:25.321Z,986.62
2018-01-02T04:43:25.268Z,986.68
2018-01-02T04:44:25.276Z,986.71
2018-01-02T04:45:25.258Z,986.69
2018-01-02T04:46:25.249Z,986.71
2018-01-02T04:47:25.228Z,986.77
2018-01-02T04:48:25.248Z,986.83
2018-01-02T04:49:25.265Z,986.80
2018-01-02T04:50:25.228Z,986.85
2018-01-02T04:51:25.219Z,986.85
2018-01-02T04:52:25.217Z,986.89
2018-01-02T04:53:25.262Z,986.92
2018-01-02T04:54:25.231Z,986.97
2018-01-02T04:55:25.247Z,986.97
2018-01-02T04:56:25.178Z,986.98
2018-01-02T04:57:25.277Z,987.03
2018-01-02T04:58:25.180Z,987.06
2018-01-02T04:59:25.153Z,987.04
2018-01-02T05:00:25.151Z,987.02
2018-01-02T05:01:25.172Z,987.05
2018-01-02T05:02:25.149Z,987.02
2018-01-02T05:03:25.147Z,987.12
2018-01-02T05:04:25.177Z,987.12
2018-01-02T05:05:25.125Z,987.13
2018-01-02T05:06:25.132Z,987.18
2018-01-02T05:07:25.117Z,987.16
2018-01-02T05:08:25.102Z,987.16
2018-01-02T05:09:25.094Z,987.19
2018-01-02T05:10:25.104Z,987.21
2018-01-02T05:11:25.084Z,987.21
2018-01-02T05:12:25.081Z,987.18
2018-01-02T05:13:25.070Z,987.24
2018-01-02T05:14:25.092Z,987.22
2018-01-02T05:15:25.062Z,987.25
2018-01-02T05:16:25.053Z,987.23
2018-01-02T05:17:25.046Z,987.27
2018-01-02T05:18:25.051Z,987.31
2018-01-02T05:19:25.036Z,987.31
2018-01-02T05:20:25.034Z,987.33
2018-01-02T05:21:25.044Z,987.33
2018-01-02T05:22:25.022Z,987.38
2018-01-02T05:23:25.014Z,987.42
2018-01-02T05:24:25.006Z,987.47
2018-01-02T05:25:25.004Z,987.43
2018-01-02T05:26:25.000Z,987.51
2018-01-02T05:27:24.989Z,987.50
2018-01-02T05:28:24.984Z,987.61
2018-01-02T05:29:24.976Z,987.59
2018-01-02T05:30:24.971Z,987.73
2018-01-02T05:31:24.964Z,987.68
2018-01-02T05:32:24.962Z,987.78
2018-01-02T05:33:24.951Z,987.83
2018-01-02T05:34:24.947Z,987.78
2018-01-02T05:35:24.939Z,987.89
2018-01-02T05:36:24.937Z,987.83
2018-01-02T05:37:24.942Z,987.94
2018-01-02T05:38:24.926Z,987.92
2018-01-02T05:39:24.919Z,987.94
2018-01-02T05:40:24.914Z,987.99
2018-01-02T05:41:24.905Z,988.01
2018-01-02T05:42:24.903Z,987.94
2018-01-02T05:43:24.895Z,988.06
2018-01-02T05:44:24.891Z,988.13
2018-01-02T05:45:24.880Z,988.04
2018-01-02T05:46:24.879Z,988.18
2018-01-02T05:47:24.870Z,988.12
2018-01-02T05:48:24.865Z,988.26
2018-01-02T05:49:24.855Z,988.17
2018-01-02T05:50:24.853Z,988.25
2018-01-02T05:51:24.846Z,988.26
2018-01-02T05:52:24.840Z,988.33
2018-01-02T05:53:24.831Z,988.34
2018-01-02T05:54:24.837Z,988.33
2018-01-02T05:55:24.820Z,988.34
2018-01-02T05:56:24.815Z,988.42
2018-01-02T05:57:24.805Z,988.36
2018-01-02T05:58:24.802Z,988.49
2018-01-02T05:59:24.795Z,988.44
2018-01-02T06:00:24.789Z,988.48
2018-01-02T06:01:24.783Z,988.46
2018-01-02T06:02:24.776Z,988.49
2018-01-02T06:03:24.770Z,988.51
2018-01-02T06:04:24.763Z,988.58
2018-01-02T06:05:24.757Z,988.57
2018-01-02T06:06:24.754Z,988.58
2018-01-02T06:07:24.742Z,988.61
2018-01-02T06:08:24.738Z,988.61
2018-01-02T06:09:24.731Z,988.63
2018-01-02T06:10:24.723Z,988.61
2018-01-02T06:11:24.721Z,988.67
2018-01-02T06:12:24.713Z,988.66
2018-01-02T06:13:24.704Z,988.63
2018-01-02T06:14:24.698Z,988.73
2018-01-02T06:15:24.691Z,988.72
2018-01-02T06:16:24.691Z,988.80
2018-01-02T06:17:24.682Z,988.76
2018-01-02T06:18:24.673Z,988.84
2018-01-02T06:19:24.665Z,988.82
2018-01-02T06:20:24.660Z,988.90
2018-01-02T06:21:24.652Z,988.88
2018-01-02T06:22:24.647Z,988.90
2018-01-02T06:23:24.640Z,988.94
2018-01-02T06:24:24.634Z,988.94
2018-01-02T06:25:24.627Z,988.92
2018-01-02T06:26:24.621Z,988.98
2018-01-02T06:27:24.615Z,988.98
2018-01-02T06:28:24.607Z,989.01
2018-01-02T06:29:24.602Z,989.12
2018-01-02T06:30:24.595Z,989.13
2018-01-02T06:31:24.587Z,989.12
2018-01-02T06:32:24.581Z,989.12
2018-01-02T06:33:24.575Z,989.21
2018-01-02T06:34:24.567Z,989.21
2018-01-02T06:35:24.566Z,989.26
2018-01-02T06:36:24.558Z,989.30
2018-01-02T06:37:24.550Z,989.28
2018-01-02T06:38:24.541Z,989.32
2018-01-02T06:39:24.537Z,989.34
2018-01-02T06:40:24.535Z,989.36
2018-01-02T06:41:24.523Z,989.40
2018-01-02T06:42:24.518Z,989.41
2018-01-02T06:43:24.510Z,989.44
2018-01-02T06:44:24.504Z,989.40
2018-01-02T06:45:24.499Z,989.45
2018-01-02T06:46:24.500Z,989.48
2018-01-02T06:47:24.487Z,989.50
2018-01-02T06:48:24.480Z,989.47
2018-01-02T06:49:24.472Z,989.50
2018-01-02T06:50:24.466Z,989.52
2018-01-02T06:51:24.457Z,989.55
2018-01-02T06:52:24.454Z,989.59
2018-01-02T06:53:24.446Z,989.67
2018-01-02T06:54:24.438Z,989.65
2018-01-02T06:55:24.431Z,989.61
2018-01-02T06:56:24.434Z,989.71
2018-01-02T06:57:24.419Z,989.64
2018-01-02T06:58:24.413Z,989.74
2018-01-02T06:59:24.408Z,989.74
2018-01-02T07:00:24.402Z,989.81
2018-01-02T07:01:24.396Z,989.80
2018-01-02T07:02:24.388Z,989.86
2018-01-02T07:03:24.381Z,989.91
2018-01-02T07:04:24.374Z,989.92
2018-01-02T07:05:24.369Z,989.96
2018-01-02T07:06:24.370Z,989.95
2018-01-02T07:07:24.356Z,989.98
2018-01-02T07:08:24.364Z,990.09
2018-01-02T07:09:24.343Z,990.07
2018-01-02T07:10:24.337Z,990.15
2018-01-02T07:11:24.329Z,990.16
2018-01-02T07:12:24.323Z,990.21
2018-01-02T07:13:24.316Z,990.22
2018-01-02T07:14:24.307Z,990.26
2018-01-02T07:15:24.303Z,990.25
2018-01-02T07:16:24.299Z,990.30
2018-01-02T07:17:24.291Z,990.29
2018-01-02T07:18:24.285Z,990.33
2018-01-02T07:19:24.278Z,990.37
2018-01-02T07:20:24.268Z,990.34
2018-01-02T07:21:24.265Z,990.40
2018-01-02T07:22:24.260Z,990.40
2018-01-02T07:23:24.252Z,990.46
2018-01-02T07:24:24.244Z,990.48
2018-01-02T07:25:24.238Z,990.43
2018-01-02T07:26:24.231Z,990.48
2018-01-02T07:27:24.223Z,990.51
2018-01-02T07:28:24.221Z,990.51
2018-01-02T07:29:24.214Z,990.46
2018-01-02T07:30:24.204Z,990.56
2018-01-02T07:31:24.199Z,990.59
2018-01-02T07:32:24.211Z,990.59
2018-01-02T07:33:24.187Z,990.60
2018-01-02T07:34:24.198Z,990.69
2018-01-02T07:35:24.173Z,990.63
2018-01-02T07:36:24.223Z,990.68
2018-01-02T07:37:24.161Z,990.66
2018-01-02T07:38:24.154Z,990.68
2018-01-02T07:39:24.151Z,990.74
2018-01-02T07:40:24.141Z,990.80
2018-01-02T07:41:24.133Z,990.79
2018-01-02T07:42:24.126Z,990.84
2018-01-02T07:43:24.118Z,990.85
2018-01-02T07:44:24.115Z,990.84
2018-01-02T07:45:24.109Z,990.90
2018-01-02T07:46:24.099Z,990.86
2018-01-02T07:47:24.097Z,990.90
2018-01-02T07:48:24.089Z,990.92
2018-01-02T07:49:24.082Z,990.99
2018-01-02T07:50:24.074Z,990.95
2018-01-02T07:51:24.068Z,991.02
2018-01-02T07:52:24.060Z,991.00
2018-01-02T07:53:24.074Z,991.04
2018-01-02T07:54:24.046Z,991.04
2018-01-02T07:55:24.042Z,991.09
2018-01-02T07:56:24.034Z,991.12
2018-01-02T07:57:24.029Z,991.16
2018-01-02T07:58:24.023Z,991.13
2018-01-02T07:59:24.017Z,991.13
2018-01-02T08:00:24.009Z,991.20
2018-01-02T08:01:24.000Z,991.21
2018-01-02T08:02:23.996Z,991.23
2018-01-02T08:03:23.988Z,991.23
2018-01-02T08:04:23.991Z,991.23
2018-01-02T08:05:23.986Z,991.33
2018-01-02T08:06:23.971Z,991.31
2018-01-02T08:07:23.968Z,991.37
2018-01-02T08:08:23.959Z,991.41
2018-01-02T08:09:23.951Z,991.41
2018-01-02T08:10:23.944Z,991.40
2018-01-02T08:11:23.945Z,991.45
2018-01-02T08:12:23.972Z,991.44
2018-01-02T08:13:23.925Z,991.48
2018-01-02T08:14:23.926Z,991.55
2018-01-02T08:15:23.921Z,991.57
2018-01-02T08:16:23.925Z,991.53
2018-01-02T08:17:23.901Z,991.56
2018-01-02T08:18:23.892Z,991.60
2018-01-02T08:19:23.888Z,991.56
2018-01-02T08:20:23.882Z,991.56
2018-01-02T08:21:23.876Z,991.58
2018-01-02T08:22:23.875Z,991.54
2018-01-02T08:23:23.863Z,991.62
2018-01-02T08:24:23.857Z,991.65
2018-01-02T08:25:23.862Z,991.66
2018-01-02T08:26:23.841Z,991.66
2018-01-02T08:27:23.837Z,991.65
2018-01-02T08:28:23.848Z,991.65
2018-01-02T08:29:23.828Z,991.65
2018-01-02T08:30:23.825Z,991.69
2018-01-02T08:31:23.821Z,991.76
2018-01-02T08:32:23.826Z,991.73
2018-01-02T08:33:23.799Z,991.74
2018-01-02T08:34:23.792Z,991.78
2018-01-02T08:35:23.787Z,991.81
2018-01-02T08:36:23.786Z,991.86
2018-01-02T08:37:23.772Z,991.87
2018-01-02T08:38:23.770Z,991.86
2018-01-02T08:39:23.763Z,991.90
2018-01-02T08:40:23.756Z,991.94
2018-01-02T08:41:23.750Z,991.95
2018-01-02T08:42:23.744Z,991.95
2018-01-02T08:43:23.738Z,991.89
2018-01-02T08:44:23.729Z,991.91
2018-01-02T08:45:23.724Z,991.94
2018-01-02T08:46:23.718Z,991.96
2018-01-02T08:47:23.716Z,991.98
2018-01-02T08:48:23.708Z,992.00
2018-01-02T08:49:23.698Z,992.01
2018-01-02T08:50:23.693Z,992.00
2018-01-02T08:51:23.688Z,992.06
2018-01-02T08:52:23.679Z,992.03
2018-01-02T08:53:23.674Z,992.05
2018-01-02T08:54:23.666Z,992.07
2018-01-02T08:55:23.662Z,992.11
2018-01-02T08:56:23.657Z,992.18
2018-01-02T08:57:23.655Z,992.20
2018-01-02T08:58:23.689Z,992.24
2018-01-02T08:59:23.637Z,992.18
2018-01-02T09:00:23.630Z,992.22
2018-01-02T09:01:23.626Z,992.25
2018-01-02T09:02:23.620Z,992.28
2018-01-02T09:03:23.615Z,992.30
2018-01-02T09:04:23.613Z,992.30
2018-01-02T09:05:23.603Z,992.32
2018-01-02T09:06:23.601Z,992.36
2018-01-02T09:07:23.590Z,992.39
2018-01-02T09:08:23.586Z,992.37
2018-01-02T09:09:23.577Z,992.39
2018-01-02T09:10:23.573Z,992.42
2018-01-02T09:11:23.567Z,992.42
2018-01-02T09:12:23.562Z,992.46
2018-01-02T09:13:23.554Z,992.46
2018-01-02T09:14:23.568Z,992.53
2018-01-02T09:15:23.544Z,992.54
2018-01-02T09:16:23.538Z,992.56
2018-01-02T09:17:23.533Z,992.63
2018-01-02T09:18:23.526Z,992.60
2018-01-02T09:19:23.520Z,992.62
2018-01-02T09:20:23.517Z,992.60
2018-01-02T09:21:23.509Z,992.65
2018-01-02T09:22:23.506Z,992.66
2018-01-02T09:23:23.524Z,992.67
2018-01-02T09:24:23.498Z,992.71
2018-01-02T09:25:23.486Z,992.67
2018-01-02T09:26:23.483Z,992.71
2018-01-02T09:27:23.477Z,992.75
2018-01-02T09:28:23.472Z,992.73
2018-01-02T09:29:23.467Z,992.78
2018-01-02T09:30:23.461Z,992.77
2018-01-02T09:31:23.456Z,992.77
2018-01-02T09:32:23.470Z,992.76
2018-01-02T09:33:23.444Z,992.77
2018-01-02T09:34:23.438Z,992.79
2018-01-02T09:35:23.433Z,992.73
2018-01-02T09:36:23.433Z,992.74
2018-01-02T09:37:23.423Z,992.73
2018-01-02T09:38:23.422Z,992.74
2018-01-02T09:39:23.413Z,992.80
2018-01-02T09:40:23.422Z,992.77
2018-01-02T09:41:23.422Z,992.80
2018-01-02T09:42:23.402Z,992.85
2018-01-02T09:43:23.410Z,992.83
2018-01-02T09:44:23.384Z,992.88
2018-01-02T09:45:23.380Z,992.87
2018-01-02T09:46:23.375Z,992.88
2018-01-02T09:47:23.385Z,992.89
2018-01-02T09:48:23.368Z,992.88
2018-01-02T09:49:23.398Z,992.90
2018-01-02T09:50:23.356Z,992.93
2018-01-02T09:51:23.349Z,992.92
2018-01-02T09:52:23.343Z,992.89
2018-01-02T09:53:23.347Z,992.87
2018-01-02T09:54:23.334Z,992.94
2018-01-02T09:55:23.335Z,992.96
2018-01-02T09:56:23.336Z,992.92
2018-01-02T09:57:23.348Z,992.90
2018-01-02T09:58:23.313Z,992.90
2018-01-02T09:59:23.311Z,992.93
2018-01-02T10:00:23.304Z,992.95
2018-01-02T10:01:23.298Z,992.99
2018-01-02T10:02:23.294Z,992.99
2018-01-02T10:03:23.294Z,993.04
2018-01-02T10:04:23.284Z,993.04
2018-01-02T10:05:23.277Z,992.99
2018-01-02T10:06:23.273Z,993.01
2018-01-02T10:07:23.270Z,993.01
2018-01-02T10:08:23.265Z,993.02
2018-01-02T10:09:23.299Z,993.03
2018-01-02T10:10:23.253Z,993.04
2018-01-02T10:11:23.249Z,993.08
2018-01-02T10:12:23.246Z,993.08
2018-01-02T10:13:23.239Z,993.07
2018-01-02T10:14:23.235Z,993.06
2018-01-02T10:15:23.229Z,993.11
2018-01-02T10:16:23.225Z,993.11
2018-01-02T10:17:23.221Z,993.14
2018-01-02T10:18:23.220Z,993.18
2018-01-02T10:19:23.211Z,993.21
2018-01-02T10:20:23.210Z,993.19
2018-01-02T10:21:23.202Z,993.20
2018-01-02T10:22:23.242Z,993.23
2018-01-02T10:23:23.194Z,993.22
2018-01-02T10:24:23.190Z,993.20
2018-01-02T10:25:23.182Z,993.24
2018-01-02T10:26:23.175Z,993.28
2018-01-02T10:27:23.171Z,993.30
2018-01-02T10:28:23.192Z,993.31
2018-01-02T10:29:23.163Z,993.33
2018-01-02T10:30:23.158Z,993.33
2018-01-02T10:31:23.154Z,993.34
2018-01-02T10:32:23.147Z,993.35
2018-01-02T10:33:23.150Z,993.40
2018-01-02T10:34:23.141Z,993.37
2018-01-02T10:35:23.160Z,993.34
2018-01-02T10:36:23.143Z,993.39
2018-01-02T10:37:23.127Z,993.40
2018-01-02T10:38:23.121Z,993.37
2018-01-02T10:39:23.115Z,993.42
2018-01-02T10:40:23.110Z,993.40
2018-01-02T10:41:23.107Z,993.38
2018-01-02T10:42:23.107Z,993.40
2018-01-02T10:43:23.103Z,993.43
2018-01-02T10:44:23.092Z,993.44
2018-01-02T10:45:23.088Z,993.46
2018-01-02T10:46:23.083Z,993.41
2018-01-02T10:47:23.079Z,993.43
2018-01-02T10:48:23.076Z,993.52
2018-01-02T10:49:23.070Z,993.45
2018-01-02T10:50:23.071Z,993.41
2018-01-02T10:51:23.062Z,993.52
2018-01-02T10:52:23.057Z,993.41
2018-01-02T10:53:23.052Z,993.42
2018-01-02T10:54:23.049Z,993.44
2018-01-02T10:55:23.042Z,993.47
2018-01-02T10:56:23.038Z,993.43
2018-01-02T10:57:23.039Z,993.44
2018-01-02T10:58:23.037Z,993.49
2018-01-02T10:59:23.027Z,993.49
2018-01-02T11:00:23.020Z,993.44
2018-01-02T11:01:23.022Z,993.47
2018-01-02T11:02:23.392Z,993.46
2018-01-02T11:03:23.008Z,993.50
2018-01-02T11:04:23.002Z,993.50
2018-01-02T11:05:22.998Z,993.58
2018-01-02T11:06:22.998Z,993.52
2018-01-02T11:07:22.990Z,993.49
2018-01-02T11:08:22.984Z,993.50
2018-01-02T11:09:22.981Z,993.55
2018-01-02T11:10:22.976Z,993.52
2018-01-02T11:11:22.971Z,993.56
2018-01-02T11:12:22.972Z,993.53
2018-01-02T11:13:22.964Z,993.57
2018-01-02T11:14:22.958Z,993.57
2018-01-02T11:15:22.956Z,993.57
2018-01-02T11:16:22.949Z,993.57
2018-01-02T11:17:22.958Z,993.57
2018-01-02T11:18:22.944Z,993.60
2018-01-02T11:19:22.936Z,993.57
2018-01-02T11:20:22.933Z,993.59
2018-01-02T11:21:22.926Z,993.66
2018-01-02T11:22:22.924Z,993.65
2018-01-02T11:23:22.921Z,993.66
2018-01-02T11:24:22.917Z,993.68
2018-01-02T11:25:22.908Z,993.65
2018-01-02T11:26:22.907Z,993.72
2018-01-02T11:27:22.901Z,993.71
2018-01-02T11:28:22.899Z,993.67
2018-01-02T11:29:22.897Z,993.71
2018-01-02T11:30:22.926Z,993.72
2018-01-02T11:31:22.883Z,993.74
2018-01-02T11:32:22.883Z,993.74
2018-01-02T11:33:22.876Z,993.75
2018-01-02T11:34:22.871Z,993.65
2018-01-02T11:35:22.868Z,993.67
2018-01-02T11:36:22.864Z,993.67
2018-01-02T11:37:22.858Z,993.67
2018-01-02T11:38:22.855Z,993.68
2018-01-02T11:39:22.856Z,993.64
2018-01-02T11:40:22.847Z,993.69
2018-01-02T11:41:22.843Z,993.69
2018-01-02T11:42:22.855Z,993.66
2018-01-02T11:43:22.834Z,993.68
2018-01-02T11:44:22.829Z,993.64
2018-01-02T11:45:22.824Z,993.67
2018-01-02T11:46:22.827Z,993.70
2018-01-02T11:47:22.817Z,993.67
2018-01-02T11:48:22.813Z,993.69
2018-01-02T11:49:22.819Z,993.68
2018-01-02T11:50:22.807Z,993.70
2018-01-02T11:51:22.800Z,993.78
2018-01-02T11:52:22.856Z,993.81
2018-01-02T11:53:22.795Z,993.86
2018-01-02T11:54:22.790Z,993.84
2018-01-02T11:55:22.782Z,993.86
2018-01-02T11:56:22.804Z,993.85
2018-01-02T11:57:22.787Z,993.86
2018-01-02T11:58:22.771Z,993.89
2018-01-02T11:59:22.772Z,993.86
2018-01-02T12:00:22.764Z,993.87
2018-01-02T12:01:22.759Z,993.88
2018-01-02T12:02:22.769Z,993.86
2018-01-02T12:03:22.751Z,993.93
2018-01-02T12:04:22.748Z,993.87
2018-01-02T12:05:22.740Z,993.84
2018-01-02T12:06:22.739Z,993.85
2018-01-02T12:07:22.734Z,993.85
2018-01-02T12:08:22.732Z,993.89
2018-01-02T12:09:22.726Z,993.90
2018-01-02T12:10:22.723Z,993.92
2018-01-02T12:11:22.721Z,993.92
2018-01-02T12:12:22.718Z,993.92
2018-01-02T12:13:22.711Z,993.93
2018-01-02T12:14:22.715Z,993.88
2018-01-02T12:15:22.704Z,993.92
2018-01-02T12:16:22.700Z,993.97
2018-01-02T12:17:22.696Z,993.97
2018-01-02T12:18:22.692Z,993.94
2018-01-02T12:19:22.688Z,993.99
2018-01-02T12:20:22.684Z,993.95
2018-01-02T12:21:22.680Z,993.99
2018-01-02T12:22:22.680Z,994.07
2018-01-02T12:23:22.677Z,994.06
2018-01-02T12:24:22.670Z,994.08
2018-01-02T12:25:22.665Z,994.07
2018-01-02T12:26:22.661Z,994.03
2018-01-02T12:27:22.704Z,994.12
2018-01-02T12:28:22.686Z,994.05